sensor_id;sensor_type;location;lat;lon;timestamp;P1;durP1;ratioP1;P2;durP2;ratioP2
53801;SDS011;39709;53.334;6.534;2022-08-04T00:00:44;16.50;;;5.80;;
53801;SDS011;39709;53.334;6.534;2022-08-04T00:03:18;16.33;;;5.80;;
53801;SDS011;39709;53.334;6.534;2022-08-04T00:11:06;12.18;;;5.72;;
53801;SDS011;39709;53.334;6.534;2022-08-04T00:13:35;13.35;;;5.72;;
53801;SDS011;39709;53.334;6.534;2022-08-04T00:16:07;16.47;;;5.70;;
53801;SDS011;39709;53.334;6.534;2022-08-04T00:18:44;17.85;;;6.32;;
53801;SDS011;39709;53.334;6.534;2022-08-04T00:21:14;14.38;;;6.00;;
53801;SDS011;39709;53.334;6.534;2022-08-04T00:23:43;14.90;;;5.38;;
53801;SDS011;39709;53.334;6.534;2022-08-04T00:26:10;14.52;;;5.82;;
53801;SDS011;39709;53.334;6.534;2022-08-04T00:28:36;14.23;;;4.90;;
53801;SDS011;39709;53.334;6.534;2022-08-04T00:31:03;15.80;;;5.63;;
53801;SDS011;39709;53.334;6.534;2022-08-04T00:33:29;14.80;;;5.32;;
53801;SDS011;39709;53.334;6.534;2022-08-04T00:35:57;15.00;;;6.57;;
53801;SDS011;39709;53.334;6.534;2022-08-04T00:38:24;21.17;;;6.00;;
53801;SDS011;39709;53.334;6.534;2022-08-04T00:43:30;15.13;;;5.35;;
53801;SDS011;39709;53.334;6.534;2022-08-04T00:54:48;16.20;;;6.22;;
53801;SDS011;39709;53.334;6.534;2022-08-04T00:57:27;15.18;;;5.80;;
53801;SDS011;39709;53.334;6.534;2022-08-04T01:00:18;15.03;;;5.73;;
53801;SDS011;39709;53.334;6.534;2022-08-04T01:03:05;14.10;;;5.85;;
53801;SDS011;39709;53.334;6.534;2022-08-04T01:08:18;13.77;;;5.93;;
53801;SDS011;39709;53.334;6.534;2022-08-04T01:16:30;15.73;;;6.32;;
53801;SDS011;39709;53.334;6.534;2022-08-04T01:19:00;16.55;;;6.68;;
53801;SDS011;39709;53.334;6.534;2022-08-04T01:29:08;15.45;;;6.47;;
53801;SDS011;39709;53.334;6.534;2022-08-04T01:34:34;15.17;;;5.90;;
53801;SDS011;39709;53.334;6.534;2022-08-04T01:37:50;16.38;;;6.07;;
53801;SDS011;39709;53.334;6.534;2022-08-04T01:40:16;19.13;;;5.88;;
53801;SDS011;39709;53.334;6.534;2022-08-04T01:42:43;18.60;;;7.05;;
53801;SDS011;39709;53.334;6.534;2022-08-04T01:45:12;17.67;;;6.95;;
53801;SDS011;39709;53.334;6.534;2022-08-04T01:47:56;15.77;;;6.43;;
53801;SDS011;39709;53.334;6.534;2022-08-04T01:50:22;15.52;;;6.53;;
53801;SDS011;39709;53.334;6.534;2022-08-04T01:52:52;17.75;;;6.85;;
53801;SDS011;39709;53.334;6.534;2022-08-04T01:55:19;18.90;;;6.95;;
53801;SDS011;39709;53.334;6.534;2022-08-04T01:57:46;20.17;;;7.28;;
53801;SDS011;39709;53.334;6.534;2022-08-04T02:00:15;19.27;;;6.63;;
53801;SDS011;39709;53.334;6.534;2022-08-04T02:02:45;18.20;;;7.50;;
53801;SDS011;39709;53.334;6.534;2022-08-04T02:05:14;18.65;;;7.70;;
53801;SDS011;39709;53.334;6.534;2022-08-04T02:07:58;19.98;;;7.20;;
53801;SDS011;39709;53.334;6.534;2022-08-04T02:10:30;17.67;;;7.10;;
53801;SDS011;39709;53.334;6.534;2022-08-04T02:15:55;19.30;;;7.32;;
53801;SDS011;39709;53.334;6.534;2022-08-04T02:19:07;14.48;;;6.95;;
53801;SDS011;39709;53.334;6.534;2022-08-04T02:21:40;17.52;;;6.80;;
53801;SDS011;39709;53.334;6.534;2022-08-04T02:24:07;12.55;;;6.55;;
53801;SDS011;39709;53.334;6.534;2022-08-04T02:26:42;20.63;;;7.53;;
53801;SDS011;39709;53.334;6.534;2022-08-04T02:32:14;15.77;;;6.75;;
53801;SDS011;39709;53.334;6.534;2022-08-04T02:35:19;17.20;;;7.00;;
53801;SDS011;39709;53.334;6.534;2022-08-04T02:37:29;19.23;;;7.28;;
53801;SDS011;39709;53.334;6.534;2022-08-04T02:39:58;16.00;;;7.47;;
53801;SDS011;39709;53.334;6.534;2022-08-04T02:42:25;14.27;;;7.13;;
53801;SDS011;39709;53.334;6.534;2022-08-04T02:44:54;18.25;;;7.13;;
53801;SDS011;39709;53.334;6.534;2022-08-04T02:47:22;16.63;;;7.30;;
53801;SDS011;39709;53.334;6.534;2022-08-04T02:49:50;18.40;;;7.60;;
53801;SDS011;39709;53.334;6.534;2022-08-04T02:52:17;19.65;;;7.05;;
53801;SDS011;39709;53.334;6.534;2022-08-04T02:54:44;14.05;;;6.95;;
53801;SDS011;39709;53.334;6.534;2022-08-04T02:57:13;17.30;;;7.53;;
53801;SDS011;39709;53.334;6.534;2022-08-04T03:11:27;20.10;;;7.47;;
53801;SDS011;39709;53.334;6.534;2022-08-04T03:43:32;20.07;;;6.93;;
53801;SDS011;39709;53.334;6.534;2022-08-04T03:49:06;19.17;;;7.00;;
53801;SDS011;39709;53.334;6.534;2022-08-04T04:14:17;17.35;;;7.40;;
53801;SDS011;39709;53.334;6.534;2022-08-04T04:19:48;14.55;;;7.10;;
53801;SDS011;39709;53.334;6.534;2022-08-04T04:23:19;16.08;;;7.00;;
53801;SDS011;39709;53.334;6.534;2022-08-04T04:25:53;19.03;;;6.23;;
53801;SDS011;39709;53.334;6.534;2022-08-04T04:28:37;16.15;;;6.70;;
53801;SDS011;39709;53.334;6.534;2022-08-04T04:33:59;21.42;;;7.05;;
53801;SDS011;39709;53.334;6.534;2022-08-04T04:39:11;14.83;;;6.23;;
53801;SDS011;39709;53.334;6.534;2022-08-04T04:41:54;15.02;;;6.30;;
53801;SDS011;39709;53.334;6.534;2022-08-04T04:50:13;17.02;;;6.70;;
53801;SDS011;39709;53.334;6.534;2022-08-04T04:52:48;15.30;;;6.50;;
53801;SDS011;39709;53.334;6.534;2022-08-04T04:55:23;17.55;;;6.70;;
53801;SDS011;39709;53.334;6.534;2022-08-04T04:57:56;14.50;;;6.30;;
53801;SDS011;39709;53.334;6.534;2022-08-04T05:00:25;13.55;;;6.47;;
53801;SDS011;39709;53.334;6.534;2022-08-04T05:08:52;15.25;;;6.97;;
53801;SDS011;39709;53.334;6.534;2022-08-04T05:14:02;17.13;;;6.50;;
53801;SDS011;39709;53.334;6.534;2022-08-04T05:16:34;14.52;;;6.97;;
53801;SDS011;39709;53.334;6.534;2022-08-04T05:19:24;14.40;;;6.00;;
53801;SDS011;39709;53.334;6.534;2022-08-04T05:24:54;16.58;;;6.95;;
53801;SDS011;39709;53.334;6.534;2022-08-04T05:27:40;15.60;;;7.07;;
53801;SDS011;39709;53.334;6.534;2022-08-04T05:30:14;17.00;;;7.03;;
53801;SDS011;39709;53.334;6.534;2022-08-04T05:32:56;19.67;;;6.53;;
53801;SDS011;39709;53.334;6.534;2022-08-04T05:35:32;14.68;;;7.22;;
53801;SDS011;39709;53.334;6.534;2022-08-04T05:38:00;14.38;;;6.85;;
53801;SDS011;39709;53.334;6.534;2022-08-04T05:40:28;17.63;;;6.53;;
53801;SDS011;39709;53.334;6.534;2022-08-04T05:42:54;15.70;;;7.27;;
53801;SDS011;39709;53.334;6.534;2022-08-04T05:45:21;17.33;;;7.73;;
53801;SDS011;39709;53.334;6.534;2022-08-04T05:47:47;17.15;;;7.07;;
53801;SDS011;39709;53.334;6.534;2022-08-04T05:50:16;16.10;;;6.97;;
53801;SDS011;39709;53.334;6.534;2022-08-04T05:52:43;13.38;;;7.25;;
53801;SDS011;39709;53.334;6.534;2022-08-04T05:55:10;15.13;;;7.28;;
53801;SDS011;39709;53.334;6.534;2022-08-04T05:57:40;13.90;;;6.90;;
53801;SDS011;39709;53.334;6.534;2022-08-04T06:00:07;18.42;;;6.88;;
53801;SDS011;39709;53.334;6.534;2022-08-04T06:02:33;16.38;;;7.20;;
53801;SDS011;39709;53.334;6.534;2022-08-04T06:05:01;16.70;;;6.72;;
53801;SDS011;39709;53.334;6.534;2022-08-04T06:07:29;19.83;;;7.00;;
53801;SDS011;39709;53.334;6.534;2022-08-04T06:09:55;16.13;;;6.63;;
53801;SDS011;39709;53.334;6.534;2022-08-04T06:12:25;16.10;;;6.97;;
53801;SDS011;39709;53.334;6.534;2022-08-04T06:14:56;13.32;;;6.38;;
53801;SDS011;39709;53.334;6.534;2022-08-04T06:17:29;14.97;;;6.37;;
53801;SDS011;39709;53.334;6.534;2022-08-04T06:19:57;15.60;;;6.78;;
53801;SDS011;39709;53.334;6.534;2022-08-04T06:22:25;16.38;;;6.40;;
53801;SDS011;39709;53.334;6.534;2022-08-04T06:24:53;17.45;;;6.72;;
53801;SDS011;39709;53.334;6.534;2022-08-04T06:27:20;18.00;;;6.30;;
53801;SDS011;39709;53.334;6.534;2022-08-04T06:29:48;19.90;;;6.07;;
53801;SDS011;39709;53.334;6.534;2022-08-04T06:32:15;13.52;;;5.93;;
53801;SDS011;39709;53.334;6.534;2022-08-04T06:34:51;13.75;;;6.25;;
53801;SDS011;39709;53.334;6.534;2022-08-04T06:37:20;13.77;;;6.03;;
53801;SDS011;39709;53.334;6.534;2022-08-04T06:39:48;12.52;;;6.43;;
53801;SDS011;39709;53.334;6.534;2022-08-04T06:42:16;15.73;;;6.33;;
53801;SDS011;39709;53.334;6.534;2022-08-04T06:44:43;15.73;;;7.03;;
53801;SDS011;39709;53.334;6.534;2022-08-04T06:47:10;15.30;;;6.15;;
53801;SDS011;39709;53.334;6.534;2022-08-04T06:49:37;14.02;;;5.70;;
53801;SDS011;39709;53.334;6.534;2022-08-04T06:52:04;16.75;;;6.20;;
53801;SDS011;39709;53.334;6.534;2022-08-04T06:54:31;15.17;;;5.50;;
53801;SDS011;39709;53.334;6.534;2022-08-04T06:56:57;11.65;;;5.03;;
53801;SDS011;39709;53.334;6.534;2022-08-04T06:59:25;14.07;;;5.82;;
53801;SDS011;39709;53.334;6.534;2022-08-04T07:01:52;14.95;;;5.15;;
53801;SDS011;39709;53.334;6.534;2022-08-04T07:04:19;13.50;;;6.05;;
53801;SDS011;39709;53.334;6.534;2022-08-04T07:06:45;13.87;;;5.77;;
53801;SDS011;39709;53.334;6.534;2022-08-04T07:09:11;12.55;;;5.47;;
53801;SDS011;39709;53.334;6.534;2022-08-04T07:11:37;16.00;;;4.90;;
53801;SDS011;39709;53.334;6.534;2022-08-04T07:14:03;16.23;;;4.50;;
53801;SDS011;39709;53.334;6.534;2022-08-04T07:16:30;11.90;;;4.90;;
53801;SDS011;39709;53.334;6.534;2022-08-04T07:18:57;12.52;;;4.65;;
53801;SDS011;39709;53.334;6.534;2022-08-04T07:21:23;13.68;;;4.40;;
53801;SDS011;39709;53.334;6.534;2022-08-04T07:23:51;12.80;;;4.77;;
53801;SDS011;39709;53.334;6.534;2022-08-04T07:26:16;11.23;;;4.80;;
53801;SDS011;39709;53.334;6.534;2022-08-04T07:28:43;12.88;;;4.47;;
53801;SDS011;39709;53.334;6.534;2022-08-04T07:31:12;13.43;;;4.85;;
53801;SDS011;39709;53.334;6.534;2022-08-04T07:33:41;11.87;;;4.73;;
53801;SDS011;39709;53.334;6.534;2022-08-04T07:36:08;13.30;;;4.22;;
53801;SDS011;39709;53.334;6.534;2022-08-04T07:38:33;13.05;;;3.67;;
53801;SDS011;39709;53.334;6.534;2022-08-04T07:40:59;10.67;;;4.20;;
53801;SDS011;39709;53.334;6.534;2022-08-04T07:43:27;8.90;;;4.10;;
53801;SDS011;39709;53.334;6.534;2022-08-04T07:45:54;10.40;;;4.43;;
53801;SDS011;39709;53.334;6.534;2022-08-04T07:48:20;10.60;;;4.70;;
53801;SDS011;39709;53.334;6.534;2022-08-04T07:50:48;16.73;;;4.83;;
53801;SDS011;39709;53.334;6.534;2022-08-04T07:53:14;13.27;;;5.10;;
53801;SDS011;39709;53.334;6.534;2022-08-04T07:55:43;15.18;;;5.50;;
53801;SDS011;39709;53.334;6.534;2022-08-04T07:58:12;13.32;;;5.60;;
53801;SDS011;39709;53.334;6.534;2022-08-04T08:00:38;14.30;;;5.40;;
53801;SDS011;39709;53.334;6.534;2022-08-04T08:03:04;16.35;;;4.75;;
53801;SDS011;39709;53.334;6.534;2022-08-04T08:05:31;13.60;;;5.57;;
53801;SDS011;39709;53.334;6.534;2022-08-04T08:07:57;11.67;;;5.53;;
53801;SDS011;39709;53.334;6.534;2022-08-04T08:10:23;11.05;;;5.53;;
53801;SDS011;39709;53.334;6.534;2022-08-04T08:12:50;13.95;;;5.43;;
53801;SDS011;39709;53.334;6.534;2022-08-04T08:15:17;10.68;;;4.93;;
53801;SDS011;39709;53.334;6.534;2022-08-04T08:17:43;12.50;;;5.20;;
53801;SDS011;39709;53.334;6.534;2022-08-04T08:20:09;14.95;;;4.95;;
53801;SDS011;39709;53.334;6.534;2022-08-04T08:22:36;14.00;;;5.78;;
53801;SDS011;39709;53.334;6.534;2022-08-04T08:25:03;10.15;;;4.82;;
53801;SDS011;39709;53.334;6.534;2022-08-04T08:27:30;10.40;;;5.10;;
53801;SDS011;39709;53.334;6.534;2022-08-04T08:29:56;15.60;;;5.85;;
53801;SDS011;39709;53.334;6.534;2022-08-04T08:32:22;13.02;;;5.10;;
53801;SDS011;39709;53.334;6.534;2022-08-04T08:34:48;10.85;;;4.82;;
53801;SDS011;39709;53.334;6.534;2022-08-04T08:37:20;10.17;;;4.97;;
53801;SDS011;39709;53.334;6.534;2022-08-04T08:45:41;11.88;;;4.88;;
53801;SDS011;39709;53.334;6.534;2022-08-04T08:56:38;13.45;;;5.20;;
53801;SDS011;39709;53.334;6.534;2022-08-04T08:59:25;9.65;;;3.80;;
53801;SDS011;39709;53.334;6.534;2022-08-04T09:02:05;10.20;;;3.70;;
53801;SDS011;39709;53.334;6.534;2022-08-04T09:04:47;8.40;;;2.90;;
53801;SDS011;39709;53.334;6.534;2022-08-04T09:13:01;8.73;;;2.75;;
53801;SDS011;39709;53.334;6.534;2022-08-04T09:27:00;12.40;;;2.95;;
53801;SDS011;39709;53.334;6.534;2022-08-04T09:37:51;9.75;;;2.95;;
53801;SDS011;39709;53.334;6.534;2022-08-04T09:40:33;8.80;;;2.28;;
53801;SDS011;39709;53.334;6.534;2022-08-04T09:45:49;6.17;;;2.03;;
53801;SDS011;39709;53.334;6.534;2022-08-04T09:51:00;8.13;;;2.35;;
53801;SDS011;39709;53.334;6.534;2022-08-04T09:56:25;5.25;;;1.63;;
53801;SDS011;39709;53.334;6.534;2022-08-04T09:59:08;5.03;;;1.37;;
53801;SDS011;39709;53.334;6.534;2022-08-04T10:01:34;7.25;;;1.95;;
53801;SDS011;39709;53.334;6.534;2022-08-04T10:04:02;6.88;;;1.50;;
53801;SDS011;39709;53.334;6.534;2022-08-04T10:19:49;8.52;;;2.10;;
53801;SDS011;39709;53.334;6.534;2022-08-04T10:22:24;6.15;;;1.75;;
53801;SDS011;39709;53.334;6.534;2022-08-04T10:28:08;7.97;;;2.22;;
53801;SDS011;39709;53.334;6.534;2022-08-04T10:30:38;10.10;;;2.85;;
53801;SDS011;39709;53.334;6.534;2022-08-04T10:36:15;10.13;;;2.67;;
53801;SDS011;39709;53.334;6.534;2022-08-04T10:41:24;11.05;;;2.10;;
53801;SDS011;39709;53.334;6.534;2022-08-04T10:47:07;6.82;;;1.52;;
53801;SDS011;39709;53.334;6.534;2022-08-04T10:49:43;7.70;;;1.88;;
53801;SDS011;39709;53.334;6.534;2022-08-04T10:55:17;7.38;;;1.42;;
53801;SDS011;39709;53.334;6.534;2022-08-04T10:57:49;5.60;;;1.80;;
53801;SDS011;39709;53.334;6.534;2022-08-04T11:00:21;9.68;;;1.77;;
53801;SDS011;39709;53.334;6.534;2022-08-04T11:03:11;4.47;;;1.50;;
53801;SDS011;39709;53.334;6.534;2022-08-04T11:05:48;4.97;;;1.53;;
53801;SDS011;39709;53.334;6.534;2022-08-04T11:08:46;6.30;;;1.30;;
53801;SDS011;39709;53.334;6.534;2022-08-04T11:16:46;5.97;;;2.10;;
53801;SDS011;39709;53.334;6.534;2022-08-04T11:24:51;5.65;;;2.00;;
53801;SDS011;39709;53.334;6.534;2022-08-04T11:27:41;5.40;;;1.60;;
53801;SDS011;39709;53.334;6.534;2022-08-04T11:30:15;9.57;;;1.90;;
53801;SDS011;39709;53.334;6.534;2022-08-04T11:33:00;6.43;;;2.00;;
53801;SDS011;39709;53.334;6.534;2022-08-04T11:38:48;5.63;;;1.80;;
53801;SDS011;39709;53.334;6.534;2022-08-04T11:41:47;5.20;;;1.80;;
53801;SDS011;39709;53.334;6.534;2022-08-04T11:46:58;8.37;;;2.07;;
53801;SDS011;39709;53.334;6.534;2022-08-04T11:52:05;7.15;;;2.05;;
53801;SDS011;39709;53.334;6.534;2022-08-04T11:54:34;7.78;;;1.70;;
53801;SDS011;39709;53.334;6.534;2022-08-04T11:57:02;9.15;;;1.85;;
53801;SDS011;39709;53.334;6.534;2022-08-04T11:59:29;7.60;;;1.77;;
53801;SDS011;39709;53.334;6.534;2022-08-04T12:02:10;7.85;;;1.80;;
53801;SDS011;39709;53.334;6.534;2022-08-04T12:04:53;6.68;;;1.38;;
53801;SDS011;39709;53.334;6.534;2022-08-04T12:16:19;5.75;;;1.40;;
53801;SDS011;39709;53.334;6.534;2022-08-04T12:18:56;4.40;;;1.20;;
53801;SDS011;39709;53.334;6.534;2022-08-04T12:24:30;6.20;;;1.70;;
53801;SDS011;39709;53.334;6.534;2022-08-04T12:27:07;4.60;;;1.17;;
53801;SDS011;39709;53.334;6.534;2022-08-04T12:29:41;5.10;;;1.10;;
53801;SDS011;39709;53.334;6.534;2022-08-04T12:35:26;4.72;;;1.00;;
53801;SDS011;39709;53.334;6.534;2022-08-04T12:37:50;6.20;;;1.38;;
53801;SDS011;39709;53.334;6.534;2022-08-04T12:40:32;4.67;;;1.10;;
53801;SDS011;39709;53.334;6.534;2022-08-04T12:43:19;7.88;;;1.10;;
53801;SDS011;39709;53.334;6.534;2022-08-04T12:46:01;4.63;;;1.08;;
53801;SDS011;39709;53.334;6.534;2022-08-04T12:48:30;5.38;;;1.17;;
53801;SDS011;39709;53.334;6.534;2022-08-04T12:50:57;5.35;;;1.20;;
53801;SDS011;39709;53.334;6.534;2022-08-04T12:53:33;5.50;;;1.40;;
53801;SDS011;39709;53.334;6.534;2022-08-04T12:56:05;5.43;;;1.70;;
53801;SDS011;39709;53.334;6.534;2022-08-04T12:58:35;6.03;;;1.90;;
53801;SDS011;39709;53.334;6.534;2022-08-04T13:01:04;8.45;;;1.70;;
53801;SDS011;39709;53.334;6.534;2022-08-04T13:06:06;5.70;;;1.48;;
53801;SDS011;39709;53.334;6.534;2022-08-04T13:08:35;7.18;;;1.40;;
53801;SDS011;39709;53.334;6.534;2022-08-04T13:11:03;6.03;;;1.55;;
53801;SDS011;39709;53.334;6.534;2022-08-04T13:13:30;6.78;;;1.60;;
53801;SDS011;39709;53.334;6.534;2022-08-04T13:16:00;8.07;;;1.90;;
53801;SDS011;39709;53.334;6.534;2022-08-04T13:18:30;8.05;;;2.20;;
53801;SDS011;39709;53.334;6.534;2022-08-04T13:21:09;8.57;;;2.10;;
53801;SDS011;39709;53.334;6.534;2022-08-04T13:23:44;6.93;;;2.00;;
53801;SDS011;39709;53.334;6.534;2022-08-04T13:26:11;6.55;;;1.98;;
53801;SDS011;39709;53.334;6.534;2022-08-04T13:28:39;5.53;;;1.60;;
53801;SDS011;39709;53.334;6.534;2022-08-04T13:31:07;8.75;;;1.70;;
53801;SDS011;39709;53.334;6.534;2022-08-04T13:33:38;6.55;;;1.55;;
53801;SDS011;39709;53.334;6.534;2022-08-04T13:36:08;5.13;;;1.50;;
53801;SDS011;39709;53.334;6.534;2022-08-04T13:38:38;11.57;;;3.58;;
53801;SDS011;39709;53.334;6.534;2022-08-04T13:41:11;11.57;;;3.67;;
53801;SDS011;39709;53.334;6.534;2022-08-04T13:43:41;11.07;;;2.90;;
53801;SDS011;39709;53.334;6.534;2022-08-04T13:46:24;13.65;;;4.18;;
53801;SDS011;39709;53.334;6.534;2022-08-04T13:48:52;17.70;;;3.65;;
53801;SDS011;39709;53.334;6.534;2022-08-04T13:51:19;13.30;;;3.75;;
53801;SDS011;39709;53.334;6.534;2022-08-04T13:53:57;12.43;;;4.23;;
53801;SDS011;39709;53.334;6.534;2022-08-04T13:56:41;14.13;;;3.25;;
53801;SDS011;39709;53.334;6.534;2022-08-04T13:59:11;13.43;;;4.35;;
53801;SDS011;39709;53.334;6.534;2022-08-04T14:01:42;12.73;;;4.28;;
53801;SDS011;39709;53.334;6.534;2022-08-04T14:04:19;14.77;;;5.05;;
53801;SDS011;39709;53.334;6.534;2022-08-04T14:09:16;14.55;;;4.60;;
53801;SDS011;39709;53.334;6.534;2022-08-04T14:11:48;11.75;;;4.15;;
53801;SDS011;39709;53.334;6.534;2022-08-04T14:14:23;13.00;;;5.35;;
53801;SDS011;39709;53.334;6.534;2022-08-04T14:24:59;12.02;;;5.30;;
53801;SDS011;39709;53.334;6.534;2022-08-04T14:27:48;10.70;;;4.80;;
53801;SDS011;39709;53.334;6.534;2022-08-04T14:33:09;11.40;;;6.80;;
53801;SDS011;39709;53.334;6.534;2022-08-04T14:35:36;11.73;;;6.10;;
53801;SDS011;39709;53.334;6.534;2022-08-04T14:38:05;10.95;;;5.60;;
53801;SDS011;39709;53.334;6.534;2022-08-04T14:40:39;10.88;;;5.32;;
53801;SDS011;39709;53.334;6.534;2022-08-04T14:43:06;8.90;;;4.70;;
53801;SDS011;39709;53.334;6.534;2022-08-04T14:45:40;9.80;;;4.90;;
53801;SDS011;39709;53.334;6.534;2022-08-04T14:48:11;10.93;;;5.32;;
53801;SDS011;39709;53.334;6.534;2022-08-04T14:50:46;7.60;;;4.45;;
53801;SDS011;39709;53.334;6.534;2022-08-04T14:53:14;10.02;;;4.95;;
53801;SDS011;39709;53.334;6.534;2022-08-04T14:55:45;10.07;;;4.37;;
53801;SDS011;39709;53.334;6.534;2022-08-04T15:00:47;7.43;;;3.42;;
53801;SDS011;39709;53.334;6.534;2022-08-04T15:03:14;7.45;;;3.17;;
53801;SDS011;39709;53.334;6.534;2022-08-04T15:05:42;6.50;;;3.20;;
53801;SDS011;39709;53.334;6.534;2022-08-04T15:08:09;6.57;;;3.07;;
53801;SDS011;39709;53.334;6.534;2022-08-04T15:10:37;8.43;;;3.08;;
53801;SDS011;39709;53.334;6.534;2022-08-04T15:13:03;8.50;;;3.38;;
53801;SDS011;39709;53.334;6.534;2022-08-04T15:15:30;5.95;;;2.53;;
53801;SDS011;39709;53.334;6.534;2022-08-04T15:17:57;6.22;;;2.40;;
53801;SDS011;39709;53.334;6.534;2022-08-04T15:20:23;6.37;;;1.77;;
53801;SDS011;39709;53.334;6.534;2022-08-04T15:22:49;5.50;;;1.95;;
53801;SDS011;39709;53.334;6.534;2022-08-04T15:25:15;5.50;;;1.98;;
53801;SDS011;39709;53.334;6.534;2022-08-04T15:27:42;5.47;;;2.00;;
53801;SDS011;39709;53.334;6.534;2022-08-04T15:30:12;6.83;;;1.90;;
53801;SDS011;39709;53.334;6.534;2022-08-04T15:32:50;6.60;;;2.88;;
53801;SDS011;39709;53.334;6.534;2022-08-04T15:35:24;6.80;;;2.78;;
53801;SDS011;39709;53.334;6.534;2022-08-04T15:45:55;7.82;;;2.60;;
53801;SDS011;39709;53.334;6.534;2022-08-04T15:48:26;6.93;;;2.47;;
53801;SDS011;39709;53.334;6.534;2022-08-04T15:53:22;6.55;;;1.90;;
53801;SDS011;39709;53.334;6.534;2022-08-04T15:55:49;5.13;;;1.73;;
53801;SDS011;39709;53.334;6.534;2022-08-04T15:58:16;6.70;;;2.05;;
53801;SDS011;39709;53.334;6.534;2022-08-04T16:05:59;5.93;;;1.83;;
53801;SDS011;39709;53.334;6.534;2022-08-04T16:19:10;5.95;;;1.48;;
53801;SDS011;39709;53.334;6.534;2022-08-04T16:22:00;6.13;;;1.90;;
53801;SDS011;39709;53.334;6.534;2022-08-04T16:27:03;5.85;;;1.40;;
53801;SDS011;39709;53.334;6.534;2022-08-04T16:29:40;6.38;;;1.70;;
53801;SDS011;39709;53.334;6.534;2022-08-04T16:32:07;6.15;;;1.73;;
53801;SDS011;39709;53.334;6.534;2022-08-04T16:34:39;5.40;;;1.30;;
53801;SDS011;39709;53.334;6.534;2022-08-04T16:37:09;5.60;;;1.70;;
53801;SDS011;39709;53.334;6.534;2022-08-04T16:39:37;5.22;;;1.70;;
53801;SDS011;39709;53.334;6.534;2022-08-04T16:45:37;4.85;;;1.50;;
53801;SDS011;39709;53.334;6.534;2022-08-04T16:50:12;5.55;;;1.50;;
53801;SDS011;39709;53.334;6.534;2022-08-04T16:52:49;6.10;;;1.52;;
53801;SDS011;39709;53.334;6.534;2022-08-04T16:55:20;6.22;;;1.60;;
53801;SDS011;39709;53.334;6.534;2022-08-04T16:57:47;5.07;;;1.40;;
53801;SDS011;39709;53.334;6.534;2022-08-04T17:00:14;4.50;;;1.40;;
53801;SDS011;39709;53.334;6.534;2022-08-04T17:02:41;4.60;;;1.33;;
53801;SDS011;39709;53.334;6.534;2022-08-04T17:05:23;3.95;;;1.55;;
53801;SDS011;39709;53.334;6.534;2022-08-04T17:07:50;6.22;;;1.70;;
53801;SDS011;39709;53.334;6.534;2022-08-04T17:10:33;7.22;;;1.73;;
53801;SDS011;39709;53.334;6.534;2022-08-04T17:16:10;7.13;;;1.98;;
53801;SDS011;39709;53.334;6.534;2022-08-04T17:18:40;7.45;;;1.80;;
53801;SDS011;39709;53.334;6.534;2022-08-04T17:21:08;6.68;;;1.77;;
53801;SDS011;39709;53.334;6.534;2022-08-04T17:23:37;7.72;;;2.67;;
53801;SDS011;39709;53.334;6.534;2022-08-04T17:26:09;5.47;;;1.87;;
53801;SDS011;39709;53.334;6.534;2022-08-04T17:28:35;7.22;;;2.00;;
53801;SDS011;39709;53.334;6.534;2022-08-04T17:31:03;7.78;;;1.90;;
53801;SDS011;39709;53.334;6.534;2022-08-04T17:33:30;7.07;;;1.80;;
53801;SDS011;39709;53.334;6.534;2022-08-04T17:35:58;6.15;;;2.05;;
53801;SDS011;39709;53.334;6.534;2022-08-04T17:38:32;6.83;;;1.93;;
53801;SDS011;39709;53.334;6.534;2022-08-04T17:41:06;7.82;;;1.88;;
53801;SDS011;39709;53.334;6.534;2022-08-04T17:43:37;7.68;;;1.90;;
53801;SDS011;39709;53.334;6.534;2022-08-04T17:46:27;7.00;;;2.40;;
53801;SDS011;39709;53.334;6.534;2022-08-04T17:49:10;5.55;;;1.83;;
53801;SDS011;39709;53.334;6.534;2022-08-04T17:51:43;6.57;;;1.90;;
53801;SDS011;39709;53.334;6.534;2022-08-04T17:54:13;7.57;;;2.28;;
53801;SDS011;39709;53.334;6.534;2022-08-04T17:56:48;7.80;;;2.42;;
53801;SDS011;39709;53.334;6.534;2022-08-04T17:59:16;8.43;;;2.47;;
53801;SDS011;39709;53.334;6.534;2022-08-04T18:09:29;7.22;;;2.22;;
53801;SDS011;39709;53.334;6.534;2022-08-04T18:12:03;6.90;;;2.50;;
53801;SDS011;39709;53.334;6.534;2022-08-04T18:14:39;10.18;;;2.88;;
53801;SDS011;39709;53.334;6.534;2022-08-04T18:17:04;8.55;;;2.80;;
53801;SDS011;39709;53.334;6.534;2022-08-04T18:19:30;10.02;;;2.80;;
53801;SDS011;39709;53.334;6.534;2022-08-04T18:21:56;8.87;;;2.90;;
53801;SDS011;39709;53.334;6.534;2022-08-04T18:24:22;9.77;;;2.55;;
53801;SDS011;39709;53.334;6.534;2022-08-04T18:26:48;9.67;;;2.80;;
53801;SDS011;39709;53.334;6.534;2022-08-04T18:29:13;8.23;;;1.90;;
53801;SDS011;39709;53.334;6.534;2022-08-04T18:31:39;9.33;;;2.47;;
53801;SDS011;39709;53.334;6.534;2022-08-04T18:34:06;8.73;;;2.55;;
53801;SDS011;39709;53.334;6.534;2022-08-04T18:36:33;7.85;;;2.50;;
53801;SDS011;39709;53.334;6.534;2022-08-04T18:39:00;6.97;;;2.20;;
53801;SDS011;39709;53.334;6.534;2022-08-04T18:41:28;8.25;;;2.20;;
53801;SDS011;39709;53.334;6.534;2022-08-04T18:43:54;5.70;;;1.80;;
53801;SDS011;39709;53.334;6.534;2022-08-04T18:46:21;7.40;;;2.13;;
53801;SDS011;39709;53.334;6.534;2022-08-04T18:48:47;6.93;;;2.03;;
53801;SDS011;39709;53.334;6.534;2022-08-04T18:51:13;10.33;;;2.10;;
53801;SDS011;39709;53.334;6.534;2022-08-04T18:53:38;8.07;;;1.70;;
53801;SDS011;39709;53.334;6.534;2022-08-04T18:56:04;6.97;;;1.87;;
53801;SDS011;39709;53.334;6.534;2022-08-04T18:58:30;7.05;;;1.52;;
53801;SDS011;39709;53.334;6.534;2022-08-04T19:00:56;7.88;;;1.80;;
53801;SDS011;39709;53.334;6.534;2022-08-04T19:03:22;7.63;;;1.67;;
53801;SDS011;39709;53.334;6.534;2022-08-04T19:05:47;6.30;;;1.75;;
53801;SDS011;39709;53.334;6.534;2022-08-04T19:08:14;8.15;;;1.95;;
53801;SDS011;39709;53.334;6.534;2022-08-04T19:10:39;7.07;;;2.13;;
53801;SDS011;39709;53.334;6.534;2022-08-04T19:13:05;9.05;;;1.90;;
53801;SDS011;39709;53.334;6.534;2022-08-04T19:15:30;8.27;;;2.70;;
53801;SDS011;39709;53.334;6.534;2022-08-04T19:17:56;7.10;;;2.40;;
53801;SDS011;39709;53.334;6.534;2022-08-04T19:20:22;9.32;;;2.70;;
53801;SDS011;39709;53.334;6.534;2022-08-04T19:22:48;10.52;;;3.20;;
53801;SDS011;39709;53.334;6.534;2022-08-04T19:25:14;9.30;;;2.80;;
53801;SDS011;39709;53.334;6.534;2022-08-04T19:27:39;9.63;;;2.38;;
53801;SDS011;39709;53.334;6.534;2022-08-04T19:30:05;7.50;;;2.40;;
53801;SDS011;39709;53.334;6.534;2022-08-04T19:32:32;8.43;;;2.85;;
53801;SDS011;39709;53.334;6.534;2022-08-04T19:34:57;9.00;;;2.33;;
53801;SDS011;39709;53.334;6.534;2022-08-04T19:37:23;8.23;;;2.53;;
53801;SDS011;39709;53.334;6.534;2022-08-04T19:39:49;9.97;;;2.03;;
53801;SDS011;39709;53.334;6.534;2022-08-04T19:42:15;9.00;;;2.83;;
53801;SDS011;39709;53.334;6.534;2022-08-04T19:44:41;7.63;;;1.93;;
53801;SDS011;39709;53.334;6.534;2022-08-04T19:47:06;7.03;;;2.10;;
53801;SDS011;39709;53.334;6.534;2022-08-04T19:49:32;7.80;;;2.53;;
53801;SDS011;39709;53.334;6.534;2022-08-04T19:51:58;10.33;;;3.00;;
53801;SDS011;39709;53.334;6.534;2022-08-04T19:54:24;8.60;;;2.80;;
53801;SDS011;39709;53.334;6.534;2022-08-04T19:56:50;7.60;;;2.90;;
53801;SDS011;39709;53.334;6.534;2022-08-04T19:59:16;9.43;;;3.33;;
53801;SDS011;39709;53.334;6.534;2022-08-04T20:01:41;12.90;;;3.57;;
53801;SDS011;39709;53.334;6.534;2022-08-04T20:04:07;7.05;;;2.53;;
53801;SDS011;39709;53.334;6.534;2022-08-04T20:06:33;10.27;;;2.70;;
53801;SDS011;39709;53.334;6.534;2022-08-04T20:08:58;9.45;;;2.65;;
53801;SDS011;39709;53.334;6.534;2022-08-04T20:11:24;8.60;;;3.00;;